Latest Weather Observations for Cape Moreton

IDQ60901

Issued at 12:55 pm EST Wednesday 3 September 2014 (issued every 10 minutes, with the page automatically refreshed every 10 minutes)

About weather observations | Map of Brisbane area stations | Latest observations for Brisbane area | Other Formats
Station Details ID: 040043 Name: CAPE MORETON LIGHTHOUSE Lat: -27.03 Lon: 153.47 Height: 99.9 m
Data from the previous 72 hours. | See also: Recent months at Cape Moreton
Date/Time
EST
Tmp

°C
App
Tmp
°C
Dew
Point
°C
Rel
Hum
%
Delta-T

°C
Wind Press
QNH
hPa
Press
MSL
hPa
Rain
since
9 am
mm
Dir
 
Spd
km/h
Gust
km/h
Spd
kts
Gust
kts
03/12:30pm 18.9 10.4 3.1 35 7.4 WSW 37 59 20 32 1010.4 1010.2 -
03/12:00pm 18.4 10.3 3.1 36 7.1 W 35 54 19 29 1010.9 1010.7 -
03/11:30am 17.8 10.1 2.2 35 7.1 W 32 54 17 29 1011.4 1011.2 -
03/11:01am 17.3 10.5 2.9 38 6.6 W 28 46 15 25 1011.6 1011.4 -
03/11:00am 17.2 9.8 2.0 36 6.9 W 30 46 16 25 1011.5 1011.3 -
03/10:30am 16.5 8.7 1.8 37 6.6 W 32 50 17 27 1011.9 1011.7 -
03/10:00am 16.0 6.0 1.3 37 6.5 W 43 65 23 35 1011.9 1011.7 -
03/09:30am 15.8 7.5 1.9 39 6.2 W 35 59 19 32 1011.9 1011.7 -
03/09:00am 15.0 4.7 0.1 36 6.3 W 44 63 24 34 1011.6 1011.4 -
03/08:30am 14.7 4.5 -0.6 35 6.4 W 43 67 23 36 1012.0 1011.8 -
03/08:00am 14.1 4.4 0.7 40 5.7 WSW 41 63 22 34 1012.1 1011.9 -
03/07:30am 13.8 5.5 2.1 45 5.1 WSW 35 54 19 29 1012.5 1012.3 -
03/07:14am 13.7 5.9 2.0 45 5.1 WSW 32 50 17 27 1012.5 1012.3 -
03/07:00am 13.5 5.7 1.8 45 5.1 WSW 32 48 17 26 1012.4 1012.2 -
03/06:44am 13.3 6.3 2.2 47 4.9 WSW 28 46 15 25 1012.5 1012.3 -
03/06:30am 13.0 6.0 2.0 47 4.8 WSW 28 41 15 22 1012.7 1012.4 -
03/06:00am 13.0 6.5 2.5 49 4.6 WSW 26 37 14 20 1012.7 1012.4 -
03/05:30am 13.0 6.0 2.0 47 4.8 WSW 28 41 15 22 1012.1 1011.9 -
03/05:00am 13.1 5.3 1.8 46 4.9 WSW 32 44 17 24 1011.8 1011.6 -
03/04:30am 13.1 6.6 2.6 49 4.6 WSW 26 37 14 20 1011.7 1011.5 -
03/04:00am 13.2 7.0 2.4 48 4.8 WSW 24 35 13 19 1011.8 1011.6 -
03/03:30am 13.5 7.3 2.4 47 4.9 WSW 24 35 13 19 1011.9 1011.7 -
03/03:00am 14.1 6.8 2.4 45 5.2 WSW 30 43 16 23 1011.9 1011.7 -
03/02:30am 14.3 6.9 1.9 43 5.4 WSW 30 43 16 23 1012.2 1012.0 -
03/02:11am 14.5 6.8 2.1 43 5.5 WSW 32 50 17 27 1012.3 1012.1 -
03/02:00am 14.6 6.7 2.2 43 5.5 WSW 33 50 18 27 1012.4 1012.2 -
03/01:30am 14.9 6.5 1.8 41 5.8 WSW 35 56 19 30 1012.5 1012.3 -
03/01:00am 15.2 7.2 1.7 40 6.0 WSW 33 52 18 28 1012.7 1012.4 -
03/12:33am 15.7 6.1 1.4 38 6.3 WSW 41 59 22 32 1012.4 1012.2 -
03/12:30am 15.7 5.8 1.4 38 6.3 WSW 43 59 23 32 1012.4 1012.2 -
03/12:00am 16.1 7.7 1.8 38 6.4 WSW 35 57 19 31 1012.3 1012.1 -
 
Date/Time
EST
Tmp

°C
App
Tmp
°C
Dew
Point
°C
Rel
Hum
%
Delta-T

°C
Wind Press
QNH
hPa
Press
MSL
hPa
Rain
since
9 am
mm
Dir
 
Spd
km/h
Gust
km/h
Spd
kts
Gust
kts
02/11:35pm 16.5 7.0 1.8 37 6.6 WSW 41 65 22 35 1012.2 1012.0 -
02/11:30pm 16.5 7.5 2.5 39 6.4 WSW 39 54 21 29 1012.2 1012.0 -
02/11:00pm 16.9 7.1 2.1 37 6.7 WSW 43 61 23 33 1012.4 1012.2 -
02/10:30pm 17.4 7.5 1.8 35 7.0 WSW 43 65 23 35 1011.9 1011.7 -
02/10:08pm 17.4 9.3 3.3 39 6.5 WSW 35 54 19 29 1012.2 1012.0 -
02/10:00pm 17.6 8.8 3.5 39 6.6 WSW 39 54 21 29 1012.0 1011.8 -
02/09:30pm 18.1 8.1 4.3 40 6.6 WSW 46 67 25 36 1011.4 1011.2 -
02/09:00pm 18.6 8.7 4.8 40 6.7 SW 46 72 25 39 1011.2 1011.0 -
02/08:53pm 18.9 9.6 5.0 40 6.8 SW 43 72 23 39 1011.3 1011.1 -
02/08:30pm 19.1 12.5 6.2 43 6.4 SW 30 48 16 26 1011.2 1011.0 -
02/08:26pm 19.3 13.2 6.4 43 6.5 SW 28 48 15 26 1011.2 1011.0 -
02/08:00pm 19.5 15.3 7.6 46 6.1 WSW 19 26 10 14 1011.2 1011.0 -
02/07:30pm 20.1 15.9 7.5 44 6.5 WSW 19 26 10 14 1010.8 1010.6 -
02/07:00pm 20.5 16.8 7.8 44 6.6 WSW 17 22 9 12 1010.4 1010.2 -
02/06:30pm 21.2 17.7 10.1 49 6.0 WSW 19 28 10 15 1009.9 1009.7 -
02/06:00pm 20.7 16.2 15.5 72 3.1 NW 33 46 18 25 1009.1 1008.8 -
02/05:30pm 20.6 15.9 15.8 74 2.9 NNW 35 50 19 27 1008.5 1008.2 -
02/05:27pm 20.6 16.5 16.0 75 2.8 NNW 32 50 17 27 1008.2 1007.9 -
02/05:00pm 20.9 13.4 16.1 74 2.9 N 50 63 27 34 1007.4 1007.1 -
02/04:30pm 20.7 12.9 16.1 75 2.8 N 52 65 28 35 1007.0 1006.7 -
02/04:00pm 20.6 13.3 16.6 78 2.4 N 50 65 27 35 1006.9 1006.6 -
02/03:30pm 20.7 13.5 16.7 78 2.4 N 50 61 27 33 1007.3 1007.0 -
02/03:00pm 21.2 14.9 17.0 77 2.6 N 46 57 25 31 1007.8 1007.5 -
02/02:30pm 21.5 16.1 16.9 75 2.8 N 41 54 22 29 1008.2 1007.9 -
02/02:00pm 21.4 15.9 16.8 75 2.8 N 41 50 22 27 1008.8 1008.5 -
02/01:30pm 21.3 17.1 17.1 77 2.6 N 35 43 19 23 1009.4 1009.1 -
02/01:00pm 21.5 17.3 15.8 70 3.4 NNW 32 44 17 24 1009.9 1009.7 -
02/12:30pm 21.3 18.7 15.8 71 3.3 NNW 24 37 13 20 1010.7 1010.5 -
02/12:00pm 20.9 17.8 15.7 72 3.1 NNW 26 39 14 21 1011.4 1011.2 -
02/11:30am 19.6 15.1 15.3 76 2.5 NNW 33 46 18 25 1011.7 1011.5 -
02/11:00am 19.5 14.7 14.7 74 2.8 NNW 33 46 18 25 1012.1 1011.9 -
02/10:30am 19.9 15.5 15.1 74 2.8 NNW 32 46 17 25 1013.1 1012.8 -
02/10:00am 19.6 15.1 15.0 75 2.7 NNW 32 41 17 22 1013.7 1013.4 -
02/09:30am 19.1 14.4 14.8 76 2.5 NNW 33 46 18 25 1014.1 1013.8 -
02/09:00am 18.6 14.1 15.3 81 1.9 NNW 33 44 18 24 1014.4 1014.1 -
02/08:30am 18.3 13.8 15.0 81 1.9 NNW 32 43 17 23 1014.7 1014.4 -
02/08:00am 18.8 14.4 15.1 79 2.2 NNW 32 39 17 21 1015.2 1014.9 -
02/07:30am 18.2 14.7 15.5 84 1.6 NNW 28 37 15 20 1015.2 1014.9 -
02/07:00am 18.0 14.5 15.4 85 1.5 NNW 28 41 15 22 1014.8 1014.5 -
02/06:30am 17.8 13.9 15.4 86 1.4 NW 30 41 16 22 1015.0 1014.7 -
02/06:00am 17.5 13.0 15.3 87 1.3 NW 33 43 18 23 1014.9 1014.6 -
02/05:30am 17.6 14.5 15.6 88 1.2 NW 26 37 14 20 1014.8 1014.5 -
02/05:00am 17.6 13.4 15.8 89 1.1 NNW 32 43 17 23 1014.6 1014.3 -
02/04:30am 17.7 13.5 15.7 88 1.2 NW 32 44 17 24 1014.7 1014.4 -
02/04:00am 17.8 13.1 15.8 88 1.2 NW 35 46 19 25 1014.7 1014.4 -
02/03:30am 17.9 13.7 16.1 89 1.1 NW 33 46 18 25 1014.6 1014.3 -
02/03:00am 17.9 13.3 16.1 89 1.1 NNW 35 50 19 27 1014.7 1014.4 -
02/02:55am 18.0 14.0 16.2 89 1.1 NNW 32 50 17 27 1014.7 1014.4 -
02/02:30am 18.1 13.9 16.1 88 1.2 NW 33 46 18 25 1014.9 1014.6 -
02/02:00am 18.1 13.3 15.5 85 1.5 NNW 35 48 19 26 1015.1 1014.8 -
02/01:50am 18.1 13.6 15.5 85 1.5 NNW 33 52 18 28 1015.3 1015.0 -
02/01:30am 18.3 13.6 15.9 86 1.4 NNW 35 48 19 26 1015.6 1015.3 -
02/01:00am 18.2 13.9 15.8 86 1.4 NNW 33 44 18 24 1015.8 1015.5 -
02/12:30am 18.3 13.5 15.7 85 1.5 NNW 35 46 19 25 1016.1 1015.8 -
02/12:00am 18.5 14.1 15.2 81 1.9 NNW 32 39 17 21 1016.5 1016.2 -
 
Date/Time
EST
Tmp

°C
App
Tmp
°C
Dew
Point
°C
Rel
Hum
%
Delta-T

°C
Wind Press
QNH
hPa
Press
MSL
hPa
Rain
since
9 am
mm
Dir
 
Spd
km/h
Gust
km/h
Spd
kts
Gust
kts
01/11:30pm 18.7 14.5 15.6 82 1.8 NNW 32 41 17 22 1016.6 1016.3 -
01/11:01pm 19.1 15.1 16.1 83 1.8 NNW 32 50 17 27 1016.4 1016.1 -
01/11:00pm 19.3 15.2 16.5 84 1.7 NNW 33 50 18 27 1016.5 1016.2 -
01/10:30pm 19.5 13.8 16.3 82 1.9 N 41 54 22 29 1016.6 1016.3 -
01/10:00pm 19.6 14.6 16.1 80 2.1 N 37 50 20 27 1016.7 1016.4 -
01/09:30pm 19.7 14.0 16.2 80 2.1 N 41 50 22 27 1016.9 1016.6 -
01/09:00pm 19.8 14.4 16.1 79 2.2 N 39 50 21 27 1016.9 1016.6 -
01/08:30pm 20.0 15.4 16.0 78 2.4 N 35 46 19 25 1017.0 1016.7 -
01/08:00pm 19.9 15.3 16.0 78 2.3 N 35 46 19 25 1016.9 1016.6 -
01/07:30pm 19.9 15.5 15.7 77 2.5 N 33 44 18 24 1016.8 1016.5 -
01/07:00pm 19.8 15.4 15.7 77 2.4 N 33 44 18 24 1016.4 1016.1 -
01/06:30pm 19.7 15.4 15.8 78 2.3 N 33 43 18 23 1016.1 1015.8 -
01/06:00pm 19.7 15.3 15.6 77 2.4 NNE 33 43 18 23 1016.0 1015.7 -
01/05:30pm 19.8 15.1 14.8 73 2.9 N 33 41 18 22 1016.1 1015.8 -
01/05:00pm 19.7 15.2 13.9 69 3.3 NNE 30 39 16 21 1016.0 1015.7 -
01/04:30pm 19.9 15.3 14.5 71 3.2 NNE 32 37 17 20 1015.7 1015.4 -
01/04:00pm 20.3 16.4 14.4 69 3.4 NNE 28 35 15 19 1015.4 1015.1 -
01/03:30pm 20.6 16.5 13.8 65 3.9 NNE 28 33 15 18 1015.8 1015.5 -
01/03:00pm 21.1 18.0 14.5 66 3.9 NNE 24 32 13 17 1016.0 1015.7 -
01/02:30pm 21.4 18.4 13.8 62 4.4 NNE 22 28 12 15 1016.2 1015.9 -
01/02:00pm 21.6 19.2 14.5 64 4.2 NNE 20 28 11 15 1016.5 1016.2 -
01/01:30pm 21.9 20.2 14.8 64 4.2 N 17 24 9 13 1017.1 1016.8 -
01/01:00pm 22.5 21.0 15.4 64 4.3 N 17 22 9 12 1017.4 1017.1 -
01/12:30pm 21.9 20.5 14.5 63 4.4 N 15 20 8 11 1017.6 1017.3 -
01/12:00pm 21.8 20.9 14.9 65 4.1 NNE 13 20 7 11 1018.0 1017.7 -
01/11:30am 21.5 20.6 14.9 66 3.9 NNE 13 17 7 9 1018.6 1018.4 -
01/11:00am 20.1 19.2 13.8 67 3.6 NNW 11 17 6 9 1019.4 1019.2 -
01/10:30am 20.4 19.1 13.6 65 3.9 NW 13 19 7 10 1019.8 1019.6 -
01/10:00am 20.1 18.9 14.0 68 3.5 NW 13 17 7 9 1020.0 1019.8 -
01/09:30am 20.2 19.7 13.9 67 3.6 WNW 9 15 5 8 1020.1 1020.0 -
01/09:00am 19.3 18.0 13.7 70 3.2 W 13 19 7 10 1020.0 1019.9 -
01/08:30am 18.9 18.2 14.2 74 2.7 W 11 13 6 7 1020.1 1020.0 -
01/08:00am 18.2 18.5 14.9 81 1.9 W 7 11 4 6 1019.8 1019.7 -
01/07:30am 17.2 16.6 14.5 84 1.6 WSW 11 11 6 6 1019.4 1019.3 -
01/07:00am 16.6 15.9 14.4 87 1.3 WSW 11 15 6 8 1019.3 1019.2 -
01/06:30am 16.2 14.7 14.2 88 1.1 WSW 15 17 8 9 1019.0 1018.8 -
01/06:00am 16.2 15.2 14.7 91 0.9 W 13 13 7 7 1018.8 1018.6 -
01/05:30am 15.7 14.7 14.6 93 0.6 SW 13 15 7 8 1018.5 1018.3 -
01/05:00am 15.7 14.3 14.6 93 0.6 SW 15 17 8 9 1018.3 1018.1 -
01/04:30am 15.7 14.0 14.7 94 0.6 WSW 17 20 9 11 1018.2 1018.0 -
01/04:00am 15.8 13.7 14.8 94 0.6 WSW 19 22 10 12 1018.1 1017.9 -
01/03:30am 16.0 14.0 14.9 93 0.6 W 19 22 10 12 1018.0 1017.8 -
01/03:00am 16.1 13.9 14.5 90 0.9 W 19 20 10 11 1017.9 1017.7 -
01/02:30am 17.2 16.7 13.9 81 1.9 W 9 11 5 6 1018.0 1017.8 -
01/02:00am 17.1 15.8 13.8 81 1.9 W 13 15 7 8 1018.2 1018.0 -
01/01:30am 17.4 17.1 14.3 82 1.8 ENE 9 9 5 5 1018.4 1018.2 -
01/01:00am 17.2 17.2 14.1 82 1.8 ENE 7 9 4 5 1018.5 1018.3 -
01/12:30am 17.4 17.4 14.1 81 1.9 ENE 7 7 4 4 1018.6 1018.4 -
01/12:00am 18.1 18.7 14.2 78 2.2 ENE 4 6 2 3 1018.8 1018.6 -
 
Date/Time
EST
Tmp

°C
App
Tmp
°C
Dew
Point
°C
Rel
Hum
%
Delta-T

°C
Wind Press
QNH
hPa
Press
MSL
hPa
Rain
since
9 am
mm
Dir
 
Spd
km/h
Gust
km/h
Spd
kts
Gust
kts
31/11:30pm 17.9 18.1 14.2 79 2.1 ENE 6 9 3 5 1018.9 1018.7 -
31/11:00pm 18.1 17.8 14.4 79 2.1 ESE 9 13 5 7 1018.9 1018.7 -
31/10:30pm 18.0 17.7 14.5 80 2.0 ESE 9 13 5 7 1018.9 1018.7 -
31/10:00pm 18.2 17.2 14.5 79 2.1 E 13 17 7 9 1018.8 1018.6 -
31/09:30pm 18.3 16.6 14.8 80 2.0 ESE 17 20 9 11 1018.6 1018.4 -
31/09:00pm 18.3 16.2 14.6 79 2.1 ESE 19 22 10 12 1018.6 1018.4 -
31/08:30pm 18.4 16.1 14.7 79 2.2 ESE 20 24 11 13 1018.5 1018.3 -
31/08:00pm 18.5 15.9 14.8 79 2.2 ESE 22 26 12 14 1018.4 1018.2 -
31/07:30pm 18.5 15.7 14.2 76 2.5 ESE 22 26 12 14 1018.3 1018.1 -
31/07:00pm 18.4 15.5 14.1 76 2.5 ESE 22 28 12 15 1018.0 1017.8 -
31/06:30pm 18.6 15.0 14.3 76 2.5 ESE 26 30 14 16 1017.7 1017.5 -
31/06:00pm 18.6 14.9 13.9 74 2.7 ESE 26 32 14 17 1017.3 1017.1 -
31/05:30pm 18.8 15.1 13.9 73 2.8 ESE 26 32 14 17 1017.1 1016.9 -
31/05:00pm 19.2 15.7 13.4 69 3.3 E 24 28 13 15 1017.0 1016.8 -
31/04:30pm 19.2 15.7 13.4 69 3.3 ESE 24 28 13 15 1016.7 1016.5 -
31/04:00pm 19.3 16.4 13.0 67 3.6 E 20 26 11 14 1016.5 1016.3 -
31/03:30pm 19.5 16.5 12.7 65 3.8 E 20 24 11 13 1016.4 1016.2 -
31/03:00pm 19.8 16.9 12.8 64 4.0 E 20 24 11 13 1016.4 1016.2 -
31/02:30pm 20.1 17.2 12.8 63 4.1 ESE 20 24 11 13 1016.5 1016.3 -
31/02:00pm 20.6 18.3 13.1 62 4.3 ESE 17 20 9 11 1016.5 1016.3 -
31/01:30pm 20.9 18.6 13.1 61 4.5 ESE 17 19 9 10 1016.9 1016.7 -
31/01:00pm 21.0 18.6 12.7 59 4.7 SE 17 20 9 11 1017.2 1017.0 -

Latest Capital City Observations: Canberra | Sydney | Melbourne | Brisbane | Adelaide | Perth | Hobart | Darwin

Other Formats:

Comma delimited format used in spreadsheet applications
http://www.bom.gov.au/fwo/IDQ60901/IDQ60901.94594.axf

JavaScript Object Notation format (JSON) in row-major order
http://www.bom.gov.au/fwo/IDQ60901/IDQ60901.94594.json